createdAt,value
2023-03-29T00:00:38.298Z,6.6166
2023-03-29T00:02:41.472Z,6.4875
2023-03-29T00:03:43.047Z,6.3496
2023-03-29T00:04:43.004Z,6.2616
2023-03-29T00:05:43.039Z,6.1531
2023-03-29T00:06:43.049Z,6.0241
2023-03-29T00:07:44.268Z,5.9110
2023-03-29T00:08:44.394Z,5.8855
2023-03-29T00:09:45.642Z,5.8169
2023-03-29T00:10:45.732Z,5.7535
2023-03-29T00:11:46.953Z,5.7677
2023-03-29T00:12:48.283Z,5.7289
2023-03-29T00:13:49.526Z,5.8531
2023-03-29T00:14:50.929Z,6.1157
2023-03-29T00:15:52.111Z,6.0472
2023-03-29T00:16:53.690Z,6.0677
2023-03-29T00:17:55.082Z,6.3002
2023-03-29T00:18:55.172Z,6.2954
2023-03-29T00:19:56.427Z,6.3145
2023-03-29T00:20:57.813Z,6.4112
2023-03-29T00:21:59.037Z,6.4434
2023-03-29T00:22:59.476Z,6.4138
2023-03-29T00:24:00.674Z,6.4514
2023-03-29T00:25:00.714Z,6.4991
2023-03-29T00:26:02.031Z,6.5563
2023-03-29T00:27:03.565Z,6.5807
2023-03-29T00:28:04.854Z,6.4785
2023-03-29T00:29:06.219Z,6.3417
2023-03-29T00:30:07.429Z,6.5574
2023-03-29T00:31:08.898Z,6.4779
2023-03-29T00:32:10.207Z,6.6463
2023-03-29T00:33:10.357Z,6.7480
2023-03-29T00:34:11.622Z,7.0037
2023-03-29T00:35:11.631Z,7.2564
2023-03-29T00:36:12.907Z,7.0451
2023-03-29T00:37:12.974Z,6.8640
2023-03-29T00:38:14.181Z,6.8923
2023-03-29T00:39:15.492Z,6.8639
2023-03-29T00:40:16.803Z,7.0121
2023-03-29T00:41:17.186Z,6.8140
2023-03-29T00:42:18.386Z,6.7700
2023-03-29T00:43:18.479Z,6.8230
2023-03-29T00:44:19.791Z,7.1473
2023-03-29T00:45:21.228Z,7.1911
2023-03-29T00:46:22.659Z,7.3274
2023-03-29T00:47:22.957Z,7.2007
2023-03-29T00:48:24.369Z,7.0845
2023-03-29T00:49:24.369Z,7.0991
2023-03-29T00:50:25.571Z,7.1099
2023-03-29T00:51:26.956Z,6.9978
2023-03-29T00:52:28.231Z,6.9434
2023-03-29T00:53:29.679Z,6.8373
2023-03-29T00:54:30.959Z,6.7935
2023-03-29T00:55:32.392Z,6.9048
2023-03-29T00:56:32.488Z,6.9403
2023-03-29T00:57:34.012Z,7.1276
2023-03-29T00:58:35.246Z,7.2033
2023-03-29T00:59:36.724Z,7.2765
2023-03-29T01:00:38.048Z,7.1144
2023-03-29T01:01:38.179Z,7.0872
2023-03-29T01:02:38.456Z,7.2160
2023-03-29T01:03:40.163Z,7.4202
2023-03-29T01:04:41.444Z,7.4440
2023-03-29T01:05:42.750Z,7.4684
2023-03-29T01:06:43.864Z,7.5016
2023-03-29T01:07:44.524Z,7.4648
2023-03-29T01:08:45.745Z,7.3241
2023-03-29T01:09:45.852Z,7.3870
2023-03-29T01:10:47.126Z,7.3733
2023-03-29T01:11:48.483Z,7.3367
2023-03-29T01:12:49.715Z,7.3078
2023-03-29T01:13:51.205Z,7.2463
2023-03-29T01:14:52.484Z,7.1882
2023-03-29T01:15:53.932Z,7.1721
2023-03-29T01:16:55.338Z,7.2013
2023-03-29T01:17:55.683Z,7.0903
2023-03-29T01:18:55.798Z,7.0920
2023-03-29T01:29:06.493Z,7.3479
2023-03-29T01:30:07.869Z,7.2688
2023-03-29T01:31:09.164Z,7.2026
2023-03-29T01:32:09.230Z,7.3137
2023-03-29T01:33:10.549Z,7.3900
2023-03-29T01:34:11.913Z,7.4577
2023-03-29T01:35:11.990Z,7.4074
2023-03-29T01:36:13.538Z,7.3177
2023-03-29T01:37:14.756Z,7.2100
2023-03-29T01:38:16.127Z,7.1982
2023-03-29T01:39:17.396Z,7.1020
2023-03-29T01:40:18.736Z,7.1182
2023-03-29T01:41:20.038Z,7.3968
2023-03-29T01:42:21.529Z,7.4602
2023-03-29T01:43:23.553Z,7.4253
2023-03-29T01:44:23.385Z,7.2984
2023-03-29T01:45:24.715Z,7.3190
2023-03-29T01:46:24.817Z,7.3030
2023-03-29T01:47:24.892Z,7.3387
2023-03-29T01:48:26.106Z,7.3556
2023-03-29T01:49:27.413Z,7.3303
2023-03-29T01:50:28.627Z,7.3236
2023-03-29T01:51:29.950Z,7.1770
2023-03-29T01:52:31.202Z,7.1677
2023-03-29T01:53:31.245Z,7.1101
2023-03-29T01:54:32.612Z,7.0759
2023-03-29T02:04:41.706Z,6.9310
2023-03-29T02:05:41.763Z,6.9923
2023-03-29T02:06:42.986Z,7.0961
2023-03-29T02:07:44.301Z,6.9877
2023-03-29T02:08:45.526Z,6.9386
2023-03-29T02:09:45.589Z,6.9776
2023-03-29T02:10:45.714Z,6.9856
2023-03-29T02:11:47.163Z,6.9641
2023-03-29T02:12:48.534Z,6.8509
2023-03-29T02:13:48.471Z,6.9561
2023-03-29T02:14:48.550Z,7.0809
2023-03-29T02:15:50.041Z,7.0659
2023-03-29T02:16:50.082Z,6.9265
2023-03-29T02:17:51.428Z,6.7598
2023-03-29T02:18:51.702Z,6.7729
2023-03-29T02:19:53.069Z,6.8643
2023-03-29T02:20:53.159Z,6.8506
2023-03-29T02:21:53.144Z,6.6679
2023-03-29T02:22:54.438Z,6.5835
2023-03-29T02:28:59.466Z,7.0011
2023-03-29T02:29:59.500Z,6.8441
2023-03-29T02:31:01.045Z,6.8328
2023-03-29T02:32:01.704Z,6.8391
2023-03-29T02:33:01.777Z,6.9203
2023-03-29T02:34:01.870Z,6.9334
2023-03-29T02:35:01.908Z,6.9502
2023-03-29T02:36:02.023Z,6.9268
2023-03-29T02:37:02.130Z,7.0145
2023-03-29T02:38:03.530Z,6.8984
2023-03-29T02:39:03.684Z,6.8565
2023-03-29T02:40:04.986Z,7.0143
2023-03-29T02:41:06.493Z,7.0333
2023-03-29T02:42:07.785Z,7.1480
2023-03-29T02:44:09.035Z,7.0650
2023-03-29T02:45:10.376Z,6.9453
2023-03-29T02:46:10.472Z,6.8105
2023-03-29T02:47:10.558Z,6.7047
2023-03-29T02:48:10.669Z,6.7402
2023-03-29T02:49:12.038Z,6.7213
2023-03-29T02:50:13.702Z,6.6635
2023-03-29T02:51:15.916Z,6.7007
2023-03-29T02:52:15.922Z,6.6737
2023-03-29T02:53:15.955Z,6.7573
2023-03-29T02:54:17.338Z,6.8411
2023-03-29T02:55:17.423Z,7.1364
2023-03-29T02:56:18.638Z,7.0015
2023-03-29T02:57:20.221Z,6.7138
2023-03-29T02:58:20.236Z,6.6013
2023-03-29T02:59:21.580Z,6.5595
2023-03-29T03:00:21.672Z,6.4459
2023-03-29T03:01:23.092Z,6.6129
2023-03-29T03:02:23.335Z,6.4513
2023-03-29T03:03:23.954Z,6.3938
2023-03-29T03:04:24.308Z,6.4830
2023-03-29T03:05:25.614Z,6.5939
2023-03-29T03:06:25.752Z,6.6096
2023-03-29T03:07:27.024Z,6.7356
2023-03-29T03:09:29.787Z,6.9624
2023-03-29T03:11:31.124Z,6.8479
2023-03-29T03:12:31.477Z,6.8814
2023-03-29T03:13:32.753Z,7.0004
2023-03-29T03:14:33.101Z,6.9999
2023-03-29T03:15:34.401Z,6.9273
2023-03-29T03:16:34.865Z,6.9295
2023-03-29T03:17:34.856Z,6.7501
2023-03-29T03:18:36.149Z,6.6286
2023-03-29T03:19:36.286Z,6.6510
2023-03-29T03:20:37.553Z,6.6525
2023-03-29T03:21:38.538Z,6.6555
2023-03-29T03:22:39.867Z,6.5367
2023-03-29T03:23:39.981Z,6.5160
2023-03-29T03:27:42.479Z,6.7001
2023-03-29T03:28:42.539Z,6.6568
2023-03-29T03:29:43.922Z,6.7097
2023-03-29T03:30:44.086Z,6.9151
2023-03-29T03:31:44.191Z,7.4749
2023-03-29T03:32:44.304Z,7.6126
2023-03-29T03:33:45.638Z,7.3704
2023-03-29T03:34:47.182Z,7.2553
2023-03-29T03:35:48.512Z,7.2236
2023-03-29T03:36:48.633Z,7.2241
2023-03-29T03:37:49.942Z,7.0351
2023-03-29T03:38:51.442Z,6.8663
2023-03-29T03:39:52.731Z,6.9208
2023-03-29T03:41:55.400Z,7.1372
2023-03-29T03:42:55.759Z,7.0965
2023-03-29T03:43:56.277Z,6.9272
2023-03-29T03:44:56.324Z,6.8892
2023-03-29T03:45:56.586Z,6.9359
2023-03-29T03:46:57.090Z,6.8573
2023-03-29T03:47:57.200Z,6.9246
2023-03-29T03:48:57.383Z,6.7172
2023-03-29T03:49:57.417Z,6.5677
2023-03-29T03:50:57.441Z,6.4059
2023-03-29T03:51:58.788Z,6.4162
2023-03-29T03:52:58.928Z,6.3994
2023-03-29T03:54:00.250Z,6.5124
2023-03-29T03:55:01.789Z,6.4025
2023-03-29T03:56:03.148Z,6.2875
2023-03-29T03:57:04.825Z,6.4156
2023-03-29T03:58:06.109Z,6.4939
2023-03-29T03:59:06.341Z,6.4448
2023-03-29T04:00:07.692Z,6.3473
2023-03-29T04:01:07.680Z,6.7205
2023-03-29T04:02:07.824Z,6.9591
2023-03-29T04:03:08.093Z,7.0699
2023-03-29T04:04:09.167Z,6.9841
2023-03-29T04:05:09.459Z,6.7942
2023-03-29T04:06:09.495Z,6.6554
2023-03-29T04:07:10.744Z,6.8049
2023-03-29T04:08:12.158Z,7.0831
2023-03-29T04:09:13.480Z,6.8711
2023-03-29T04:10:13.640Z,6.7563
2023-03-29T04:11:14.909Z,6.7075
2023-03-29T04:12:15.031Z,6.5906
2023-03-29T04:13:16.337Z,7.0574
2023-03-29T04:14:17.840Z,7.3120
2023-03-29T04:15:17.855Z,7.1627
2023-03-29T04:16:18.067Z,7.0937
2023-03-29T04:17:18.189Z,7.0001
2023-03-29T04:18:18.770Z,7.2199
2023-03-29T04:19:20.085Z,7.1203
2023-03-29T04:20:20.389Z,7.0865
2023-03-29T04:21:21.659Z,7.1068
2023-03-29T04:22:21.915Z,7.0694
2023-03-29T04:34:35.111Z,7.3259
2023-03-29T04:35:35.523Z,7.4125
2023-03-29T04:36:36.744Z,7.3388
2023-03-29T04:37:38.372Z,7.2423
2023-03-29T04:38:38.367Z,7.1003
2023-03-29T04:39:38.593Z,7.0732
2023-03-29T04:40:38.681Z,7.2560
2023-03-29T04:41:40.040Z,7.1387
2023-03-29T04:42:40.082Z,7.1272
2023-03-29T04:43:41.452Z,7.2393
2023-03-29T04:44:42.981Z,7.3397
2023-03-29T04:45:43.017Z,7.2532
2023-03-29T04:46:43.247Z,7.4383
2023-03-29T04:47:43.281Z,7.3534
2023-03-29T04:48:43.308Z,7.2354
2023-03-29T04:49:43.433Z,7.0596
2023-03-29T04:50:44.674Z,7.1015
2023-03-29T04:51:44.998Z,7.3061
2023-03-29T04:52:46.546Z,7.7051
2023-03-29T04:53:46.669Z,7.7965
2023-03-29T04:54:47.978Z,7.8406
2023-03-29T04:55:48.089Z,8.0673
2023-03-29T04:56:49.431Z,8.1627
2023-03-29T04:57:49.512Z,8.2460
2023-03-29T04:58:50.772Z,8.1743
2023-03-29T04:59:52.113Z,8.1426
2023-03-29T05:00:52.280Z,8.2430
2023-03-29T05:01:52.348Z,8.1900
2023-03-29T05:02:52.650Z,8.0989
2023-03-29T05:03:52.761Z,8.0284
2023-03-29T05:04:53.157Z,8.1092
2023-03-29T05:05:53.240Z,8.1262
2023-03-29T05:06:53.422Z,8.1720
2023-03-29T05:07:54.833Z,8.1964
2023-03-29T05:08:55.226Z,8.1458
2023-03-29T05:09:55.460Z,8.1654
2023-03-29T05:10:55.773Z,8.3094
2023-03-29T05:11:55.983Z,8.3986
2023-03-29T05:12:56.097Z,8.3692
2023-03-29T05:13:56.218Z,8.3489
2023-03-29T05:14:56.463Z,8.3055
2023-03-29T05:15:57.360Z,8.1622
2023-03-29T05:16:57.594Z,7.9349
2023-03-29T05:17:58.186Z,8.0027
2023-03-29T05:18:58.585Z,8.3096
2023-03-29T05:19:59.171Z,8.2921
2023-03-29T05:20:59.878Z,8.2186
2023-03-29T05:22:00.594Z,8.2858
2023-03-29T05:23:00.642Z,8.3069
2023-03-29T05:24:01.941Z,8.1932
2023-03-29T05:25:02.110Z,8.1798
2023-03-29T05:26:03.451Z,8.1701
2023-03-29T05:27:03.610Z,8.0888
2023-03-29T05:28:03.679Z,8.0632
2023-03-29T05:29:03.640Z,8.0465
2023-03-29T05:30:03.777Z,8.1360
2023-03-29T05:31:04.273Z,8.1203
2023-03-29T05:32:04.853Z,8.1675
2023-03-29T05:33:04.885Z,8.2207
2023-03-29T05:34:06.363Z,8.1993
2023-03-29T05:35:06.472Z,8.2848
2023-03-29T05:36:06.823Z,8.3688
2023-03-29T05:37:07.086Z,8.3237
2023-03-29T05:38:07.248Z,7.9461
2023-03-29T05:39:07.323Z,7.8494
2023-03-29T05:40:08.127Z,7.8175
2023-03-29T05:41:09.284Z,8.0559
2023-03-29T05:42:09.579Z,8.1438
2023-03-29T05:43:09.458Z,8.1636
2023-03-29T05:44:09.624Z,8.1713
2023-03-29T05:46:10.862Z,8.2028
2023-03-29T05:47:11.214Z,8.0655
2023-03-29T05:48:11.290Z,8.0195
2023-03-29T05:49:11.546Z,8.0927
2023-03-29T05:50:11.678Z,8.0042
2023-03-29T05:51:12.552Z,8.0588
2023-03-29T05:52:12.717Z,8.0696
2023-03-29T05:53:12.874Z,8.0849
2023-03-29T05:54:14.248Z,8.0233
2023-03-29T05:55:14.381Z,7.9616
2023-03-29T05:56:14.494Z,7.8814
2023-03-29T05:57:14.706Z,7.8865
2023-03-29T05:58:14.870Z,7.9058
2023-03-29T05:59:15.033Z,7.8344
2023-03-29T06:00:15.058Z,7.8943
2023-03-29T06:01:15.810Z,7.8955
2023-03-29T06:02:15.952Z,7.8894
2023-03-29T06:03:22.553Z,7.8978
2023-03-29T06:04:23.155Z,7.8424
2023-03-29T06:05:23.331Z,7.8952
2023-03-29T06:06:24.783Z,7.9524
2023-03-29T06:07:24.939Z,7.9412
2023-03-29T06:08:25.071Z,7.8735
2023-03-29T06:09:25.355Z,7.8968
2023-03-29T06:16:29.731Z,8.3275
2023-03-29T06:17:30.226Z,8.2960
2023-03-29T06:18:30.814Z,8.2520
2023-03-29T06:19:30.843Z,8.3914
2023-03-29T06:20:30.931Z,8.5035
2023-03-29T06:21:31.127Z,8.6992
2023-03-29T06:22:32.498Z,8.7502
2023-03-29T06:23:32.572Z,8.8277
2023-03-29T06:24:33.023Z,8.8685
2023-03-29T06:25:34.114Z,8.8330
2023-03-29T06:26:34.399Z,8.8350
2023-03-29T06:27:34.497Z,8.8003
2023-03-29T06:28:34.540Z,8.9176
2023-03-29T06:29:34.786Z,8.8406
2023-03-29T06:30:35.747Z,8.8039
2023-03-29T06:31:36.531Z,8.7575
2023-03-29T06:32:36.874Z,8.8290
2023-03-29T06:33:37.047Z,8.7446
2023-03-29T06:34:38.576Z,8.7544
2023-03-29T06:35:37.599Z,8.9604
2023-03-29T06:36:37.692Z,8.8876
2023-03-29T06:37:37.910Z,8.9392
2023-03-29T06:38:37.927Z,8.9904
2023-03-29T06:39:38.173Z,9.0195
2023-03-29T06:40:38.203Z,8.9803
2023-03-29T06:41:38.231Z,9.0283
2023-03-29T06:42:38.379Z,9.0805
2023-03-29T06:43:38.393Z,9.0347
2023-03-29T06:44:38.414Z,9.1108
2023-03-29T06:45:38.668Z,9.1601
2023-03-29T06:46:39.019Z,9.2985
2023-03-29T06:47:39.086Z,9.2533
2023-03-29T06:48:39.362Z,9.2582
2023-03-29T06:49:39.387Z,9.1956
2023-03-29T06:50:39.493Z,9.2407
2023-03-29T06:51:39.532Z,9.2505
2023-03-29T06:52:39.731Z,9.2643
2023-03-29T06:53:41.104Z,9.2120
2023-03-29T06:54:41.260Z,9.0828
2023-03-29T06:55:41.661Z,9.2255
2023-03-29T06:56:43.121Z,9.2556
2023-03-29T06:57:43.635Z,9.2493
2023-03-29T06:58:43.681Z,9.2775
2023-03-29T06:59:43.955Z,9.3910
2023-03-29T07:00:44.403Z,9.3781
2023-03-29T07:01:44.854Z,9.4478
2023-03-29T07:02:44.906Z,9.4161
2023-03-29T07:03:46.732Z,9.3470
2023-03-29T07:04:47.149Z,9.4338
2023-03-29T07:05:47.428Z,9.5045
2023-03-29T07:06:47.476Z,9.4902
2023-03-29T07:07:47.764Z,9.4329
2023-03-29T07:08:47.956Z,9.3845
2023-03-29T07:09:48.006Z,9.3897
2023-03-29T07:10:48.121Z,9.0276
2023-03-29T07:11:48.332Z,8.6748
2023-03-29T07:12:48.516Z,8.5119
2023-03-29T07:13:49.043Z,8.4168
2023-03-29T07:14:49.124Z,8.3959
2023-03-29T07:15:49.242Z,8.2486
2023-03-29T07:16:49.326Z,7.9981
2023-03-29T07:17:49.548Z,7.9119
2023-03-29T07:18:49.565Z,7.8342
2023-03-29T07:19:49.636Z,7.6771
2023-03-29T07:20:49.815Z,7.6804
2023-03-29T07:21:49.852Z,7.8114
2023-03-29T07:22:49.862Z,7.8068
2023-03-29T07:23:50.079Z,7.9527
2023-03-29T07:24:50.085Z,8.1050
2023-03-29T07:25:50.114Z,8.2331
2023-03-29T07:27:03.261Z,8.3850
2023-03-29T07:27:50.684Z,8.4258
2023-03-29T07:28:50.730Z,8.2880
2023-03-29T07:29:50.877Z,8.2760
2023-03-29T07:30:51.569Z,8.4102
2023-03-29T07:31:51.778Z,8.2975
2023-03-29T07:32:52.234Z,8.2529
2023-03-29T07:33:53.332Z,8.3270
2023-03-29T07:34:53.446Z,8.2812
2023-03-29T07:35:53.518Z,8.3199
2023-03-29T07:36:53.781Z,8.4090
2023-03-29T07:37:53.781Z,8.3398
2023-03-29T07:38:56.301Z,8.3574
2023-03-29T07:39:55.289Z,8.4277
2023-03-29T07:40:55.504Z,8.4099
2023-03-29T07:41:55.532Z,8.4578
2023-03-29T07:42:55.561Z,8.4091
2023-03-29T07:43:55.718Z,8.7671
2023-03-29T07:44:55.734Z,8.9453
2023-03-29T07:45:55.989Z,8.7127
2023-03-29T07:46:56.170Z,8.7407
2023-03-29T07:47:56.478Z,8.8294
2023-03-29T07:48:56.658Z,8.8543
2023-03-29T07:49:57.000Z,9.1948
2023-03-29T07:50:57.082Z,9.0440
2023-03-29T07:51:57.848Z,9.0555
2023-03-29T07:52:58.126Z,8.9236
2023-03-29T07:53:58.255Z,8.9381
2023-03-29T07:54:58.495Z,8.8665
2023-03-29T07:55:58.590Z,8.8534
2023-03-29T07:56:58.826Z,9.0138
2023-03-29T07:57:59.167Z,9.0272
2023-03-29T07:58:59.321Z,9.1599
2023-03-29T07:59:59.548Z,9.2332
2023-03-29T08:00:59.772Z,9.4224
2023-03-29T08:02:00.918Z,9.3804
2023-03-29T08:03:01.040Z,9.3078
2023-03-29T08:04:01.414Z,9.1468
2023-03-29T08:05:01.983Z,9.2087
2023-03-29T08:06:02.585Z,9.1588
2023-03-29T08:07:02.730Z,9.1629
2023-03-29T08:08:02.830Z,9.1073
2023-03-29T08:09:03.122Z,9.1536
2023-03-29T08:10:03.314Z,9.2603
2023-03-29T08:11:03.687Z,9.2946
2023-03-29T08:12:04.020Z,9.4002
2023-03-29T08:13:04.089Z,9.4954
2023-03-29T08:14:04.248Z,9.3595
2023-03-29T08:15:04.432Z,9.0421
2023-03-29T08:16:04.842Z,9.0210
2023-03-29T08:17:05.130Z,8.9906
2023-03-29T08:18:05.904Z,9.0490
2023-03-29T08:19:06.711Z,9.1009
2023-03-29T08:20:07.307Z,8.9505
2023-03-29T08:21:07.901Z,8.9757
2023-03-29T08:22:07.924Z,8.8880
2023-03-29T08:23:08.234Z,8.9801
2023-03-29T08:24:08.507Z,9.1823
2023-03-29T08:25:09.779Z,9.2410
2023-03-29T08:26:09.924Z,9.2006
2023-03-29T08:27:10.251Z,9.0363
2023-03-29T08:28:10.387Z,8.9527
2023-03-29T08:29:10.485Z,8.9448
2023-03-29T08:30:10.742Z,8.9373
2023-03-29T08:31:11.417Z,9.0629
2023-03-29T08:32:11.654Z,9.2014
2023-03-29T08:33:12.058Z,9.3008
2023-03-29T08:34:12.501Z,9.4535
2023-03-29T08:35:12.715Z,9.6396
2023-03-29T08:36:13.044Z,9.5399
2023-03-29T08:37:13.140Z,9.5139
2023-03-29T08:38:13.333Z,9.6593
2023-03-29T08:39:13.646Z,9.7199
2023-03-29T08:40:13.712Z,9.6920
2023-03-29T08:41:14.553Z,9.5528
2023-03-29T08:42:14.585Z,9.6869
2023-03-29T08:43:14.662Z,9.8768
2023-03-29T08:44:14.938Z,10.0727
2023-03-29T08:45:15.006Z,10.3026
2023-03-29T08:46:15.317Z,10.2742
2023-03-29T08:47:16.202Z,10.3252
2023-03-29T08:48:16.663Z,10.2841
2023-03-29T08:49:16.830Z,10.1593
2023-03-29T08:50:16.952Z,10.3442
2023-03-29T08:51:18.016Z,10.4153
2023-03-29T08:52:18.174Z,10.2596
2023-03-29T08:53:19.409Z,10.0434
2023-03-29T08:54:19.569Z,10.2931
2023-03-29T08:55:19.904Z,10.5088
2023-03-29T08:56:20.051Z,10.5171
2023-03-29T08:57:20.710Z,10.4631
2023-03-29T08:58:20.860Z,10.6363
2023-03-29T08:59:21.318Z,10.6559
2023-03-29T09:00:21.406Z,10.8459
2023-03-29T09:01:21.521Z,10.9378
2023-03-29T09:02:21.979Z,10.9618
2023-03-29T09:03:22.492Z,10.9263
2023-03-29T09:04:22.781Z,11.0398
2023-03-29T09:05:22.947Z,11.1390
2023-03-29T09:06:23.212Z,11.0845
2023-03-29T09:07:26.463Z,11.2424
2023-03-29T09:08:24.041Z,11.2333
2023-03-29T09:09:25.004Z,11.4414
2023-03-29T09:10:25.210Z,11.2448
2023-03-29T09:11:25.512Z,11.2510
2023-03-29T09:12:25.612Z,11.2889
2023-03-29T09:13:25.935Z,11.1795
2023-03-29T09:14:26.091Z,11.1486
2023-03-29T09:15:26.395Z,11.3647
2023-03-29T09:16:26.486Z,11.2356
2023-03-29T09:17:27.128Z,11.0161
2023-03-29T09:18:27.464Z,10.9391
2023-03-29T09:19:27.659Z,11.0441
2023-03-29T09:20:28.010Z,10.7850
2023-03-29T09:21:28.217Z,10.4812
2023-03-29T09:22:28.297Z,10.5347
2023-03-29T09:23:28.542Z,10.7252
2023-03-29T09:24:28.881Z,10.8192
2023-03-29T09:25:29.094Z,10.6779
2023-03-29T09:26:29.490Z,10.5059
2023-03-29T09:27:29.750Z,10.6397
2023-03-29T09:28:29.907Z,10.9143
2023-03-29T09:29:31.238Z,10.8832
2023-03-29T09:30:31.372Z,10.8684
2023-03-29T09:31:31.817Z,10.8974
2023-03-29T09:32:31.961Z,10.8850
2023-03-29T09:33:32.216Z,10.9723
2023-03-29T09:34:32.324Z,10.6361
2023-03-29T09:35:32.463Z,10.5189
2023-03-29T09:36:32.758Z,10.4160
2023-03-29T09:37:32.869Z,10.3462
2023-03-29T09:38:33.221Z,10.2663
2023-03-29T09:39:33.237Z,10.3512
2023-03-29T09:40:33.359Z,10.3600
2023-03-29T09:41:33.603Z,10.4997
2023-03-29T09:42:33.717Z,10.5364
2023-03-29T09:43:33.768Z,10.5421
2023-03-29T09:44:33.976Z,10.5597
2023-03-29T09:45:34.121Z,10.5943
2023-03-29T09:46:34.520Z,10.6041
2023-03-29T09:47:34.658Z,10.5808
2023-03-29T09:48:35.251Z,10.7584
2023-03-29T09:49:35.356Z,10.9448
2023-03-29T09:50:35.918Z,10.9341
2023-03-29T09:51:36.007Z,11.0105
2023-03-29T09:52:36.315Z,11.0640
2023-03-29T09:53:36.485Z,11.0574
2023-03-29T09:54:36.809Z,10.9882
2023-03-29T09:55:37.073Z,11.1994
2023-03-29T09:56:37.338Z,11.1979
2023-03-29T09:57:37.525Z,11.0026
2023-03-29T09:58:37.894Z,10.9984
2023-03-29T09:59:38.017Z,11.0813
2023-03-29T10:00:38.141Z,11.5044
2023-03-29T10:01:38.794Z,11.5897
2023-03-29T10:02:39.302Z,11.8703
2023-03-29T10:03:39.529Z,11.8668
2023-03-29T10:04:39.994Z,11.5503
2023-03-29T10:05:40.122Z,11.7780
2023-03-29T10:06:40.214Z,11.8172
2023-03-29T10:07:40.434Z,11.6602
2023-03-29T10:08:41.838Z,11.7262
2023-03-29T10:09:42.152Z,12.0045
2023-03-29T10:10:42.567Z,11.7716
2023-03-29T10:11:42.893Z,11.9946
2023-03-29T10:12:43.265Z,12.3824
2023-03-29T10:13:43.366Z,12.1036
2023-03-29T10:14:43.532Z,12.1814
2023-03-29T10:15:44.550Z,12.6207
2023-03-29T10:16:44.775Z,12.9615
2023-03-29T10:17:45.143Z,12.3032
2023-03-29T10:18:45.370Z,12.3167
2023-03-29T10:19:45.650Z,12.4652
2023-03-29T10:20:45.854Z,12.5036
2023-03-29T10:21:46.156Z,12.7147
2023-03-29T10:22:46.300Z,13.4335
2023-03-29T10:23:46.763Z,13.0454
2023-03-29T10:24:46.862Z,12.9158
2023-03-29T10:25:47.135Z,13.2298
2023-03-29T10:26:47.320Z,12.9929
2023-03-29T10:27:47.827Z,12.8383
2023-03-29T10:28:48.049Z,12.6373
2023-03-29T10:29:48.413Z,12.7200
2023-03-29T10:30:48.690Z,12.9259
2023-03-29T10:31:49.257Z,12.9866
2023-03-29T10:32:49.804Z,13.2067
2023-03-29T10:33:50.038Z,13.2293
2023-03-29T10:34:50.515Z,13.3803
2023-03-29T10:35:50.738Z,13.5634
2023-03-29T10:36:51.103Z,13.7154
2023-03-29T10:37:51.581Z,13.9148
2023-03-29T10:38:52.004Z,14.8333
2023-03-29T10:39:52.292Z,15.0273
2023-03-29T10:40:52.723Z,14.3836
2023-03-29T10:41:53.114Z,14.8813
2023-03-29T10:42:53.226Z,15.5977
2023-03-29T10:43:54.376Z,15.5198
2023-03-29T10:44:54.835Z,14.0255
2023-03-29T10:45:55.522Z,13.7244
2023-03-29T10:46:56.782Z,13.4759
2023-03-29T10:47:57.117Z,13.9133
2023-03-29T10:48:57.520Z,13.5218
2023-03-29T10:49:58.652Z,13.4604
2023-03-29T10:50:59.032Z,13.9433
2023-03-29T10:51:59.219Z,15.5946
2023-03-29T10:52:59.806Z,15.5333
2023-03-29T10:54:00.048Z,14.3678
2023-03-29T10:55:00.563Z,13.9768
2023-03-29T10:56:00.757Z,13.4272
2023-03-29T10:57:01.139Z,13.0107
2023-03-29T10:58:01.588Z,12.9877
2023-03-29T10:59:01.811Z,13.3133
2023-03-29T11:00:02.265Z,13.1718
2023-03-29T11:01:02.778Z,12.9081
2023-03-29T11:02:03.539Z,12.8213
2023-03-29T11:03:04.236Z,12.6770
2023-03-29T11:04:05.488Z,12.7948
2023-03-29T11:05:06.067Z,12.6846
2023-03-29T11:06:06.441Z,12.6406
2023-03-29T11:07:06.858Z,12.6900
2023-03-29T11:08:07.086Z,12.7997
2023-03-29T11:09:07.440Z,12.7776
2023-03-29T11:10:07.870Z,12.8440
2023-03-29T11:11:08.348Z,13.1109
2023-03-29T11:12:15.583Z,13.4694
2023-03-29T11:13:09.668Z,13.7712
2023-03-29T11:14:10.476Z,13.9317
2023-03-29T11:15:10.662Z,14.2339
2023-03-29T11:16:11.089Z,14.3699
2023-03-29T11:17:11.330Z,14.1979
2023-03-29T11:18:11.722Z,14.1946
2023-03-29T11:19:12.106Z,14.3453
2023-03-29T11:20:12.530Z,14.2579
2023-03-29T11:21:12.928Z,14.4416
2023-03-29T11:22:13.101Z,14.6427
2023-03-29T11:23:13.506Z,14.6706
2023-03-29T11:24:13.708Z,14.7412
2023-03-29T11:25:14.124Z,14.7379
2023-03-29T11:26:14.490Z,15.0174
2023-03-29T11:27:14.704Z,14.7794
2023-03-29T11:28:15.133Z,14.9029
2023-03-29T11:29:15.289Z,15.0836
2023-03-29T11:30:15.950Z,15.7556
2023-03-29T11:31:16.793Z,15.8742
2023-03-29T11:32:17.112Z,16.0612
2023-03-29T11:33:18.039Z,16.1593
2023-03-29T11:34:18.301Z,16.0952
2023-03-29T11:35:18.678Z,15.8449
2023-03-29T11:36:19.200Z,16.3329
2023-03-29T11:37:19.416Z,17.0043
2023-03-29T11:38:19.940Z,16.8716
2023-03-29T11:39:20.404Z,16.5127
2023-03-29T11:40:20.691Z,16.3411
2023-03-29T11:41:21.109Z,17.1861
2023-03-29T11:42:21.317Z,16.9900
2023-03-29T11:43:21.629Z,17.1959
2023-03-29T11:44:22.008Z,16.8381
2023-03-29T11:45:22.255Z,17.3323
2023-03-29T11:46:22.847Z,17.9999
2023-03-29T11:47:23.511Z,17.3096
2023-03-29T11:48:24.112Z,16.3646
2023-03-29T11:49:24.546Z,16.3354
2023-03-29T11:50:25.975Z,16.2304
2023-03-29T11:51:26.154Z,17.0335
2023-03-29T11:52:26.509Z,17.7001
2023-03-29T11:53:26.769Z,17.5489
2023-03-29T11:54:27.164Z,17.1663
2023-03-29T11:55:27.979Z,17.4166
2023-03-29T11:56:28.253Z,16.6496
2023-03-29T11:57:28.809Z,16.0485
2023-03-29T11:58:29.373Z,15.8909
2023-03-29T11:59:29.667Z,15.5849
2023-03-29T12:00:30.039Z,15.9325
2023-03-29T12:01:30.484Z,16.0250
2023-03-29T12:02:31.249Z,15.7186
2023-03-29T12:03:31.911Z,15.3312
2023-03-29T12:04:33.120Z,15.3624
2023-03-29T12:05:33.531Z,15.6402
2023-03-29T12:06:33.786Z,16.0248
2023-03-29T12:07:34.205Z,16.7262
2023-03-29T12:08:34.539Z,16.6453
2023-03-29T12:09:34.731Z,15.8913
2023-03-29T12:10:35.177Z,15.7183
2023-03-29T12:11:35.352Z,15.5782
2023-03-29T12:12:36.280Z,15.3545
2023-03-29T12:13:36.669Z,15.4378
2023-03-29T12:14:37.348Z,15.2463
2023-03-29T12:15:37.791Z,15.0972
2023-03-29T12:16:38.104Z,15.0701
2023-03-29T12:17:38.739Z,15.1272
2023-03-29T12:18:39.691Z,14.8971
2023-03-29T12:19:42.658Z,14.7486
2023-03-29T12:20:41.183Z,14.7618
2023-03-29T12:21:42.065Z,14.7482
2023-03-29T12:22:42.531Z,14.8077
2023-03-29T12:23:42.711Z,14.6819
2023-03-29T12:24:43.064Z,14.5635
2023-03-29T12:25:43.669Z,14.5789
2023-03-29T12:26:43.927Z,14.5555
2023-03-29T12:27:44.286Z,14.5795
2023-03-29T12:28:44.651Z,14.3427
2023-03-29T12:29:44.954Z,14.3065
2023-03-29T12:30:45.358Z,14.3185
2023-03-29T12:31:45.868Z,14.5162
2023-03-29T12:32:46.473Z,14.7866
2023-03-29T12:33:46.883Z,14.8460
2023-03-29T12:34:47.226Z,14.9255
2023-03-29T12:35:47.535Z,14.7680
2023-03-29T12:36:47.902Z,14.7293
2023-03-29T12:37:48.140Z,14.7457
2023-03-29T12:38:48.486Z,14.7840
2023-03-29T12:39:48.898Z,14.7471
2023-03-29T12:40:49.260Z,14.4518
2023-03-29T12:41:49.584Z,14.7288
2023-03-29T12:42:49.858Z,15.3147
2023-03-29T12:43:50.317Z,15.7006
2023-03-29T12:44:50.866Z,15.7808
2023-03-29T12:45:51.187Z,15.6233
2023-03-29T12:46:52.293Z,15.6123
2023-03-29T12:47:52.763Z,15.1684
2023-03-29T12:48:53.207Z,15.9911
2023-03-29T12:49:53.825Z,16.7075
2023-03-29T12:50:54.051Z,17.8264
2023-03-29T12:51:54.454Z,17.5794
2023-03-29T12:52:54.923Z,16.6243
2023-03-29T12:53:55.115Z,16.9221
2023-03-29T12:54:55.465Z,16.7276
2023-03-29T12:55:55.921Z,16.2208
2023-03-29T12:56:56.685Z,15.6923
2023-03-29T12:57:57.024Z,15.2102
2023-03-29T12:58:57.241Z,14.7296
2023-03-29T12:59:57.662Z,14.8576
2023-03-29T13:00:58.210Z,15.1781
2023-03-29T13:01:58.917Z,14.5487
2023-03-29T13:02:59.540Z,14.7678
2023-03-29T13:04:00.268Z,14.6956
2023-03-29T13:05:00.815Z,14.5104
2023-03-29T13:06:01.847Z,14.3411
2023-03-29T13:07:01.793Z,14.5963
2023-03-29T13:08:02.223Z,14.3824
2023-03-29T13:09:02.768Z,15.0604
2023-03-29T13:10:03.330Z,15.2920
2023-03-29T13:11:03.976Z,15.8417
2023-03-29T13:12:04.454Z,16.0082
2023-03-29T13:13:04.962Z,16.1303
2023-03-29T13:14:05.302Z,15.3506
2023-03-29T13:15:05.745Z,16.2570
2023-03-29T13:16:06.497Z,16.8480
2023-03-29T13:17:17.748Z,17.2188